Terminal Aerodrome Forecast
Issued by NWS Shreveport, LA

Home | Current Version | Previous Version | Text Only | Print | Product List | Glossary On
Versions: 1 2 3 4 5 6 7 8 9 10 11 12 13 14 15 16 17 18 19 20 21 22 23 24 25 26 27
000
FTUS44 KSHV 242340
TAFGGG
TAF
KGGG 242340Z 2500/2524 26013G22KT P6SM VCTS OVC020CB
      TEMPO 2500/2501 VRB06G15KT 3SM -TSRA BR SCT015 BKN025 OVC050CB
     FM250100 30008KT P6SM VCTS OVC020CB
     FM250200 32006KT P6SM BKN050 BKN200
     FM250800 01005KT P6SM BKN200
     FM251500 10008KT P6SM BKN120
     FM252100 13006KT P6SM OVC100=

USA.gov is the U.S. government's official web portal to all federal, state and local government web resources and services.